Aérodrome :
LOGIN :

S'inscrire | Disclaimer

   EN    FR    IT 

 










Légende :    VFR   VFR Marginal   IFR   IFR Intensif   IFR Très Intensif
Visi : 
Plafond : 
>= 8 km
>= 3000ft
5 à 8 km
1000 à 3000 ft
1500m à 5 km
500 à 1000 ft
800 à 1500m
200 à 500 ft
< 800m
< 200 ft
Symboles :   Orages  Brouillard  Fortes neiges  Fortes précipitations  Vent > 20 kt
SIGMETs :   Divers  Orages  Givrage  Turbulence  Onde Orograph.  Cendres Volcan.







- Altitude de l'aérodrome : 42 ft
- Code IATA : KGD


UMKK - Khrabrava - Kaliningrad

DERNIER METAR :
  • 191630Z 26009MPS 9999 BKN009 OVC023 06/04 Q1008 R24/29//60 NOSIG RMK QFE755/1007

METARs EXPIRÉS :
  • 191600Z 26008MPS 9999 -RA BKN009 OVC023 06/04 Q1008 R24/29//60 NOSIG RMK QFE755/1007
  • 191530Z 26006MPS 9000 -RA SCT010 OVC022 06/05 Q1008 R24/29//60 NOSIG RMK QFE755/1006
  • 191500Z 26008MPS 7000 OVC011 07/04 Q1008 R24/19//60 NOSIG RMK QFE754/1006
  • 191430Z 25009MPS 9000 OVC015 08/03 Q1007 R24/19//60 NOSIG RMK QFE754/1006
  • 191400Z 26008MPS 9000 SCT021 09/03 Q1007 R24/19//60 NOSIG RMK QFE754/1006
  • 191330Z 24007MPS 9000 NSC 09/03 Q1007 R24/19//60 NOSIG RMK QFE754/1006

TAF TAF UMKK
Valide du 19 à 15h jusqu'au 20 à 15h UTC


191358Z 1915/2015 26008G13MPS 5000 -RA BR BKN011
TEMPO 1915/2009 3100 -SHRA BR BKN010 BKN015CB
BECMG 2003/2005 27009G16MPS
TEMPO 2009/2012 29012G18MPS
BECMG 2012/2014 30008G14MPS 9999 NSW



MET'MAP, la Météo Aéronautique d'un coup d'oeil ! - Copyright ORBIFLY Décembre 2007 - Disclaimer

ORBIFLY MET'MAP TEAM :

Programmation & Développement : Alexandra Zaïnal
Conception & Développement : Baudouin d'Aumeries
Co-Programmation & Développement : Marc-Olivier Méhu
Soutien technique & logistique : Manuel Goepfert

Contact : metmap@orbifly.com




SOURCES & CREDITS :

   NOAA